Terminal Aerodrome Forecast
Issued by NWS Caribou, ME

Home | Current Version | Previous Version | Text Only | Print | Product List | Glossary On
Versions: 1 2 3 4 5 6 7 8 9 10 11 12 13 14
829
FTUS41 KCAR 251720
TAFCAR
TAF
KCAR 251720Z 2518/2618 21009KT P6SM BKN070
     FM252200 19006KT P6SM VCSH OVC035
     FM260200 16008KT P6SM OVC015
     FM260300 16009KT 3SM -RA OVC022
     FM260600 14009KT 1SM -RA BR OVC011=

USA.gov is the U.S. government's official web portal to all federal, state and local government web resources and services.